Terminal Aerodrome Forecast
Issued by NWS Mt. Holly, NJ

Home | Current Version | Previous Version | Text Only | Print | Product List | Glossary On
Versions: 1 2 3 4 5 6 7 8 9 10 11 12 13 14 15 16 17 18 19 20 21 22 23 24 25 26 27 28 29 30 31 32 33 34 35 36 37 38 39 40 41 42 43 44 45 46 47 48 49 50
000
FTUS41 KPHI 261500 AAA
TAFABE
TAF AMD
KABE 261529Z 2615/2712 05015KT 3SM -SN OVC030
      TEMPO 2615/2617 1 1/2SM -SN OVC012
     FM261700 05015G25KT 3SM -SN OVC010
     FM262200 04020G30KT 1SM -SN OVC006
     FM270200 02020G30KT 1/2SM SN OVC004=

USA.gov is the U.S. government's official web portal to all federal, state and local government web resources and services.